Time;durP1;ratioP1;P1;durP2;ratioP2;P2;SDS_P1;SDS_P2;PMS_P1;PMS_P2;Temp;Humidity;BMP_temperature;BMP_pressure;BME280_temperature;BME280_humidity;BME280_pressure;Samples;Min_cycle;Max_cycle;Signal;HPM_P1;HPM_P2
2022/01/23 00:00:26;;;;;;;51.20;32.15;;;;;;;4.72;96.44;103511.59;4982824;28;20129;-59
2022/01/23 00:02:54;;;;;;;52.20;31.92;;;;;;;4.73;96.21;103506.00;4978503;28;20038;-59
2022/01/23 00:05:21;;;;;;;55.58;33.22;;;;;;;4.73;96.50;103505.13;4984242;28;20015;-59
2022/01/23 00:07:46;;;;;;;57.90;33.83;;;;;;;4.72;96.45;103501.56;4984560;28;20446;-59
2022/01/23 00:10:12;;;;;;;51.85;32.20;;;;;;;4.73;96.46;103496.97;4984173;28;20054;-59
2022/01/23 00:12:47;;;;;;;51.83;31.20;;;;;;;4.73;96.45;103502.41;4984257;28;20026;-59
2022/01/23 00:17:57;;;;;;;49.17;31.73;;;;;;;4.77;96.16;103493.00;4984146;28;20033;-59
2022/01/23 00:20:23;;;;;;;55.90;32.05;;;;;;;4.73;96.28;103486.09;4984167;28;20046;-59
2022/01/23 00:22:53;;;;;;;50.53;32.42;;;;;;;4.71;95.94;103493.50;4983929;28;20109;-58
2022/01/23 00:30:49;;;;;;;53.25;30.00;;;;;;;4.71;96.03;103482.59;4987365;28;20394;-59
2022/01/23 00:33:17;;;;;;;51.40;31.10;;;;;;;4.71;96.00;103488.03;4987985;28;20453;-59
2022/01/23 00:35:44;;;;;;;;;;;;;;;4.79;96.16;103491.00;4988993;28;20049;-59
2022/01/23 00:38:11;;;;;;;52.25;30.10;;;;;;;4.70;95.88;103487.19;4987544;28;19916;-59
2022/01/23 00:40:39;;;;;;;52.92;30.05;;;;;;;4.68;95.82;103489.19;4987077;28;20069;-59
2022/01/23 00:43:26;;;;;;;50.88;30.38;;;;;;;4.67;95.84;103477.44;4987079;28;20010;-59
2022/01/23 00:45:57;;;;;;;49.67;30.88;;;;;;;4.66;95.80;103480.25;4972872;28;20093;-59
2022/01/23 00:48:27;;;;;;;53.80;31.20;;;;;;;4.66;95.97;103482.97;4987263;28;20030;-59
2022/01/23 00:50:53;;;;;;;51.03;31.08;;;;;;;4.64;96.26;103487.69;4987817;28;20109;-58
2022/01/23 00:53:19;;;;;;;52.67;30.67;;;;;;;4.64;96.37;103485.84;4986967;28;20114;-59
2022/01/23 00:55:45;;;;;;;51.15;31.20;;;;;;;4.63;96.34;103475.09;4987505;28;20040;-58
2022/01/23 00:58:12;;;;;;;50.58;30.30;;;;;;;4.62;96.50;103476.94;4987285;28;20038;-59
2022/01/23 01:00:38;;;;;;;51.70;31.33;;;;;;;4.62;96.13;103474.22;4985231;28;20556;-59
2022/01/23 01:03:04;;;;;;;54.17;31.70;;;;;;;4.61;96.54;103472.50;4987647;28;20035;-59
2022/01/23 01:05:30;;;;;;;50.90;29.70;;;;;;;4.65;96.58;103470.38;4987697;28;20025;-58
2022/01/23 01:07:56;;;;;;;52.92;30.08;;;;;;;4.64;96.43;103465.94;4987494;28;20038;-59
2022/01/23 01:10:27;;;;;;;53.22;30.92;;;;;;;4.63;96.06;103470.50;4987243;28;20318;-59
2022/01/23 01:12:58;;;;;;;51.88;30.35;;;;;;;4.63;96.32;103467.78;4986818;28;20037;-59
2022/01/23 01:31:26;;;;;;;46.97;28.25;;;;;;;4.70;95.89;103481.75;4985366;28;20065;-59
2022/01/23 01:34:05;;;;;;;48.58;28.83;;;;;;;4.69;95.90;103486.31;4982244;28;20429;-59
2022/01/23 01:36:46;;;;;;;52.80;28.52;;;;;;;4.68;95.90;103478.28;4987418;28;20413;-59
2022/01/23 01:39:13;;;;;;;45.72;28.75;;;;;;;4.67;96.09;103488.31;4985877;28;20071;-59
2022/01/23 01:41:41;;;;;;;48.60;27.27;;;;;;;4.67;96.11;103492.91;4985220;28;20042;-59
2022/01/23 01:44:07;;;;;;;48.57;28.77;;;;;;;4.66;95.50;103500.22;4986379;28;20022;-59
2022/01/23 01:46:32;;;;;;;46.13;28.25;;;;;;;4.66;95.86;103496.59;4986277;28;20508;-59
2022/01/23 01:48:58;;;;;;;46.83;27.98;;;;;;;4.65;95.99;103494.88;4987285;28;20030;-59
2022/01/23 01:51:24;;;;;;;51.47;28.63;;;;;;;4.64;96.41;103495.88;4986369;28;20513;-59
2022/01/23 01:53:57;;;;;;;46.08;27.75;;;;;;;4.64;96.31;103499.44;4985618;28;20038;-59
2022/01/23 01:56:22;;;;;;;46.83;27.98;;;;;;;4.67;96.56;103498.34;4985719;28;20118;-59
2022/01/23 02:09:19;;;;;;;49.25;28.17;;;;;;;4.65;95.85;103495.72;4986304;28;20508;-59
2022/01/23 02:23:20;;;;;;;46.97;27.92;;;;;;;4.66;95.97;103462.09;4967145;28;20101;-59
2022/01/23 02:53:19;;;;;;;47.78;27.10;;;;;;;4.61;95.59;103447.13;4985788;28;20050;-59
2022/01/23 02:55:44;;;;;;;49.38;31.25;;;;;;;4.59;96.30;103449.97;4984970;28;20058;-59
2022/01/23 02:58:12;;;;;;;50.70;31.00;;;;;;;4.59;96.50;103449.97;4983236;28;20121;-59
2022/01/23 03:00:49;;;;;;;52.83;33.42;;;;;;;4.59;96.15;103454.56;4983701;28;20046;-59
2022/01/23 03:03:21;;;;;;;49.67;32.03;;;;;;;4.58;96.26;103450.97;4985328;28;20030;-59
2022/01/23 03:06:08;;;;;;;53.08;33.30;;;;;;;4.58;96.70;103448.25;4985527;23;20054;-59
2022/01/23 03:08:56;;;;;;;59.60;34.28;;;;;;;4.59;96.66;103452.69;4966075;28;20182;-59
2022/01/23 03:12:07;;;;;;;52.47;32.25;;;;;;;4.61;96.59;103449.84;4965309;28;20042;-59
2022/01/23 03:14:23;;;;;;;53.53;33.38;;;;;;;4.59;96.54;103449.13;4975218;28;20042;-59
2022/01/23 03:25:18;;;;;;;43.05;26.45;;;;;;;4.59;96.70;103473.59;4965969;28;20045;-59
2022/01/23 03:28:18;;;;;;;46.00;26.02;;;;;;;4.59;96.37;103468.16;4974147;28;20559;-59
2022/01/23 03:30:50;;;;;;;44.35;26.35;;;;;;;4.58;96.29;103470.03;4964987;28;20060;-59
2022/01/23 03:33:15;;;;;;;44.05;28.02;;;;;;;4.60;96.60;103469.88;4963074;28;20027;-59
2022/01/23 03:35:40;;;;;;;45.65;25.95;;;;;;;4.58;96.50;103459.13;4965410;28;20558;-59
2022/01/23 03:38:06;;;;;;;42.03;24.98;;;;;;;4.57;96.42;103457.41;4965657;28;20366;-59
2022/01/23 03:40:31;;;;;;;42.67;25.15;;;;;;;4.59;96.71;103468.16;4967208;28;20045;-59
2022/01/23 03:43:07;;;;;;;40.22;23.98;;;;;;;4.58;96.46;103467.31;4983904;28;20022;-59
2022/01/23 03:50:41;;;;;;;42.63;25.45;;;;;;;4.61;96.51;103477.06;4965396;28;20035;-59
2022/01/23 03:53:06;;;;;;;43.00;24.27;;;;;;;4.62;96.57;103474.22;4965494;28;20031;-59
2022/01/23 03:55:32;;;;;;;42.85;25.85;;;;;;;4.62;96.34;103478.81;4963901;28;20053;-59
2022/01/23 03:57:57;;;;;;;43.80;25.63;;;;;;;4.62;96.30;103486.97;4966015;28;20497;-59
2022/01/23 04:00:23;;;;;;;37.95;23.60;;;;;;;4.61;96.82;103488.84;4964298;28;20019;-59
2022/01/23 04:02:49;;;;;;;38.88;23.15;;;;;;;4.61;96.61;103490.66;4964370;28;20026;-59
2022/01/23 04:05:14;;;;;;;40.58;23.42;;;;;;;4.60;96.56;103487.06;4964894;28;20078;-60
2022/01/23 04:07:40;;;;;;;42.97;24.08;;;;;;;4.60;96.81;103492.53;4965732;28;20062;-59
2022/01/23 04:10:05;;;;;;;42.58;25.20;;;;;;;4.59;96.48;103485.34;4964244;28;20061;-59
2022/01/23 04:18:36;;;;;;;41.10;23.17;;;;;;;4.57;96.99;103495.53;4965368;28;20147;-59
2022/01/23 04:34:00;;;;;;;42.22;25.40;;;;;;;4.57;96.77;103487.34;4964695;28;20049;-59
2022/01/23 05:01:05;;;;;;;44.65;25.75;;;;;;;4.60;96.58;103497.97;4964713;28;20404;-59
2022/01/23 05:06:23;;;;;;;44.70;24.15;;;;;;;4.58;96.61;103480.91;4965128;28;20139;-59
2022/01/23 05:08:50;;;;;;;42.00;24.70;;;;;;;4.58;96.42;103490.94;4960424;28;20306;-59
2022/01/23 05:11:15;;;;;;;42.47;25.25;;;;;;;4.59;96.63;103484.50;4963885;28;20110;-59
2022/01/23 05:13:41;;;;;;;45.80;25.52;;;;;;;4.60;96.34;103491.66;4963562;28;20158;-59
2022/01/23 05:16:06;;;;;;;40.25;23.95;;;;;;;4.60;96.13;103494.38;4965678;28;20110;-59
2022/01/23 05:18:34;;;;;;;45.20;25.73;;;;;;;4.54;96.56;103489.44;4976769;28;20037;-59
2022/01/23 05:21:12;;;;;;;41.35;24.58;;;;;;;4.51;96.51;103489.69;4988092;28;20026;-59
2022/01/23 05:23:38;;;;;;;42.55;25.63;;;;;;;4.50;96.90;103488.81;4987691;28;20026;-59
2022/01/23 05:26:03;;;;;;;44.20;25.67;;;;;;;4.51;97.25;103490.59;4985684;28;20050;-59
2022/01/23 05:28:28;;;;;;;41.92;24.95;;;;;;;4.50;96.83;103497.00;4987265;28;20026;-59
2022/01/23 05:30:53;;;;;;;43.85;25.30;;;;;;;4.49;96.56;103497.13;4974760;28;20030;-59
2022/01/23 05:33:19;;;;;;;46.67;26.38;;;;;;;4.46;96.84;103497.38;4968543;28;20045;-59
2022/01/23 05:35:44;;;;;;;42.72;25.33;;;;;;;4.45;97.37;103488.34;4967651;28;20038;-59
2022/01/23 05:38:09;;;;;;;42.70;23.65;;;;;;;4.44;97.08;103492.06;4967762;28;20109;-59
2022/01/23 05:40:35;;;;;;;43.75;26.50;;;;;;;4.46;97.38;103491.94;4967177;28;20513;-59
2022/01/23 05:43:00;;;;;;;51.42;28.40;;;;;;;4.46;97.47;103500.97;4968004;28;20031;-59
2022/01/23 05:45:25;;;;;;;52.03;27.65;;;;;;;4.48;97.03;103503.56;4965805;28;20504;-59
2022/01/23 05:47:50;;;;;;;41.75;24.08;;;;;;;4.46;97.21;103500.97;4986147;28;20364;-59
2022/01/23 05:50:16;;;;;;;42.08;23.67;;;;;;;4.43;97.62;103502.09;4986687;28;20065;-59
2022/01/23 05:52:41;;;;;;;45.03;25.52;;;;;;;4.45;97.33;103501.94;4987378;28;20030;-59
2022/01/23 05:55:06;;;;;;;48.70;26.35;;;;;;;4.47;97.50;103496.41;4967009;28;20027;-59
2022/01/23 05:57:32;;;;;;;43.38;25.80;;;;;;;4.46;97.58;103500.97;4966908;28;20524;-59
2022/01/23 05:59:57;;;;;;;49.35;28.33;;;;;;;4.46;97.49;103489.19;4970056;28;20034;-59
2022/01/23 06:02:22;;;;;;;47.75;28.27;;;;;;;4.45;97.21;103492.94;4985349;28;20665;-59
2022/01/23 06:04:47;;;;;;;47.15;27.42;;;;;;;4.46;97.86;103484.66;4968347;28;20042;-59
2022/01/23 06:07:13;;;;;;;46.40;26.50;;;;;;;4.45;97.65;103491.06;4966963;28;20161;-61
2022/01/23 06:09:40;;;;;;;44.55;26.30;;;;;;;4.46;97.76;103484.66;4967450;28;20036;-61
2022/01/23 06:12:07;;;;;;;48.97;27.65;;;;;;;4.46;97.34;103479.22;4966642;28;20486;-61
2022/01/23 06:14:32;;;;;;;47.70;26.48;;;;;;;4.48;97.50;103496.25;4964516;28;20031;-62
2022/01/23 06:16:57;;;;;;;46.47;26.27;;;;;;;4.50;97.76;103496.13;4967724;28;20030;-61
2022/01/23 06:19:22;;;;;;;49.85;26.05;;;;;;;4.50;97.21;103496.13;4966967;28;20038;-61
2022/01/23 06:21:48;;;;;;;46.85;26.50;;;;;;;4.49;97.28;103489.81;4966551;28;20026;-61
2022/01/23 06:24:22;;;;;;;47.05;27.13;;;;;;;4.49;97.64;103492.56;4967071;28;20027;-61
2022/01/23 06:26:50;;;;;;;51.25;26.52;;;;;;;4.49;97.61;103500.72;4965895;28;20418;-61
2022/01/23 06:29:17;;;;;;;45.92;26.30;;;;;;;4.50;97.71;103505.16;4976298;28;20808;-61
2022/01/23 06:31:47;;;;;;;47.15;27.83;;;;;;;4.50;97.25;103497.00;4967311;28;20033;-61
2022/01/23 06:34:14;;;;;;;45.22;25.95;;;;;;;4.51;97.51;103503.28;4966505;28;20023;-61
2022/01/23 06:36:41;;;;;;;47.00;26.52;;;;;;;4.50;97.32;103497.00;4966441;28;20042;-61
2022/01/23 06:39:08;;;;;;;46.80;24.92;;;;;;;4.50;97.01;103501.56;4966640;28;20196;-61
2022/01/23 06:41:34;;;;;;;44.43;24.87;;;;;;;4.45;97.09;103504.66;4966034;28;20031;-62
2022/01/23 06:43:59;;;;;;;44.72;24.75;;;;;;;4.41;97.18;103506.81;4970512;28;20026;-61
2022/01/23 06:46:25;;;;;;;43.45;24.70;;;;;;;4.41;97.51;103509.53;4975145;28;20552;-59
2022/01/23 06:48:50;;;;;;;44.10;25.92;;;;;;;4.42;97.48;103510.38;4985999;28;20023;-59
2022/01/23 06:51:16;;;;;;;43.63;25.55;;;;;;;4.42;98.00;103515.81;4968983;28;20114;-59
2022/01/23 06:53:41;;;;;;;43.97;24.52;;;;;;;4.43;98.26;103507.53;4966924;28;20015;-59
2022/01/23 06:56:07;;;;;;;46.13;26.83;;;;;;;4.46;97.91;103506.44;4964553;28;20118;-59
2022/01/23 06:58:32;;;;;;;46.08;27.17;;;;;;;4.47;97.63;103515.44;4965192;28;20045;-59
2022/01/23 07:00:58;;;;;;;47.13;27.70;;;;;;;4.49;97.81;103513.47;4966737;28;20484;-59
2022/01/23 07:03:23;;;;;;;44.65;26.20;;;;;;;4.50;97.76;103518.75;4965980;28;20056;-59
2022/01/23 07:05:48;;;;;;;42.42;25.90;;;;;;;4.48;98.11;103519.91;4965505;28;20465;-59
2022/01/23 07:08:13;;;;;;;42.20;24.08;;;;;;;4.47;98.11;103531.78;4953162;28;20054;-59
2022/01/23 07:10:39;;;;;;;43.58;25.27;;;;;;;4.43;97.93;103523.84;4964528;28;20034;-59
2022/01/23 07:13:04;;;;;;;43.47;24.77;;;;;;;4.45;98.01;103533.75;4973277;28;20117;-59
2022/01/23 07:15:29;;;;;;;42.95;25.80;;;;;;;4.45;98.21;103531.88;4964756;28;20388;-59
2022/01/23 07:17:55;;;;;;;47.70;27.02;;;;;;;4.49;98.13;103532.50;4965701;28;20034;-59
2022/01/23 07:20:20;;;;;;;47.60;28.75;;;;;;;4.47;98.17;103537.22;4965610;28;20046;-58
2022/01/23 07:22:45;;;;;;;46.10;27.60;;;;;;;4.49;98.01;103533.38;4965423;28;20397;-59
2022/01/23 07:25:10;;;;;;;49.28;27.70;;;;;;;4.50;98.01;103537.81;4972062;28;20030;-59
2022/01/23 07:27:42;;;;;;;43.10;25.92;;;;;;;4.51;98.00;103547.75;4985012;28;20208;-59
2022/01/23 07:30:19;;;;;;;51.33;28.95;;;;;;;4.50;97.97;103553.28;4981782;28;20088;-59
2022/01/23 07:32:45;;;;;;;48.75;27.85;;;;;;;4.50;97.69;103556.00;4965706;28;20031;-59
2022/01/23 07:35:10;;;;;;;43.55;26.15;;;;;;;4.51;97.62;103561.34;4965108;28;20026;-59
2022/01/23 07:37:35;;;;;;;48.80;27.00;;;;;;;4.49;97.89;103566.03;4964894;28;20034;-59
2022/01/23 07:40:00;;;;;;;51.22;27.50;;;;;;;4.51;97.59;103558.63;4978199;28;20492;-59
2022/01/23 07:42:26;;;;;;;52.90;28.88;;;;;;;4.52;97.84;103565.78;4965190;28;20035;-59
2022/01/23 07:44:51;;;;;;;48.13;27.58;;;;;;;4.55;97.97;103568.25;4964819;28;20062;-59
2022/01/23 07:47:16;;;;;;;51.05;28.50;;;;;;;4.56;97.77;103575.44;4965346;28;20437;-59
2022/01/23 07:49:41;;;;;;;46.90;27.17;;;;;;;4.56;97.41;103566.38;4965524;28;20046;-59
2022/01/23 07:52:07;;;;;;;49.33;26.88;;;;;;;4.57;97.18;103569.00;4964931;28;20050;-59
2022/01/23 07:54:33;;;;;;;48.28;26.80;;;;;;;4.55;97.34;103565.53;4980227;28;20030;-59
2022/01/23 07:56:58;;;;;;;45.55;27.25;;;;;;;4.55;97.50;103573.69;4966765;28;20469;-59
2022/01/23 07:59:23;;;;;;;47.28;26.40;;;;;;;4.55;97.64;103570.09;4964546;28;20059;-59
2022/01/23 08:01:48;;;;;;;46.75;26.90;;;;;;;4.56;97.78;103578.16;4963686;28;20018;-59
2022/01/23 08:04:14;;;;;;;47.08;27.38;;;;;;;4.56;97.64;103566.38;4965058;28;20505;-59
2022/01/23 08:06:45;;;;;;;54.25;28.95;;;;;;;4.58;97.42;103576.19;4964706;28;20053;-59
2022/01/23 08:09:11;;;;;;;51.25;28.13;;;;;;;4.58;97.62;103572.59;4979661;28;20612;-59
2022/01/23 08:11:36;;;;;;;50.67;28.63;;;;;;;4.60;97.23;103578.75;4967641;28;20031;-59
2022/01/23 08:14:01;;;;;;;45.65;27.67;;;;;;;4.61;97.47;103577.75;4964486;28;20390;-60
2022/01/23 08:16:27;;;;;;;49.65;29.08;;;;;;;4.63;97.37;103579.38;4965250;28;20101;-59
2022/01/23 08:18:52;;;;;;;45.22;26.92;;;;;;;4.65;97.50;103576.53;4964886;28;20345;-60
2022/01/23 08:21:17;;;;;;;43.38;25.33;;;;;;;4.65;97.57;103576.53;4968855;28;20500;-60
2022/01/23 08:23:43;;;;;;;40.97;24.63;;;;;;;4.64;97.53;103575.66;4984480;28;20039;-59
2022/01/23 08:26:09;;;;;;;42.95;24.67;;;;;;;4.63;97.36;103581.25;4971719;28;20031;-60
2022/01/23 08:28:35;;;;;;;43.70;26.80;;;;;;;4.64;97.59;103581.13;4963096;28;20109;-60
2022/01/23 08:31:00;;;;;;;44.97;26.63;;;;;;;4.65;97.87;103591.00;4965525;28;20038;-60
2022/01/23 08:33:27;;;;;;;51.90;27.73;;;;;;;4.70;97.55;103585.19;4964436;28;20030;-59
2022/01/23 08:35:56;;;;;;;51.95;28.52;;;;;;;4.71;96.99;103591.50;4973204;28;20026;-59
2022/01/23 08:38:22;;;;;;;46.85;29.27;;;;;;;4.70;97.44;103590.63;4980268;28;20034;-60
2022/01/23 08:40:59;;;;;;;46.10;27.25;;;;;;;4.72;97.10;103590.53;4964429;28;20070;-59
2022/01/23 08:43:24;;;;;;;48.10;27.38;;;;;;;4.75;97.16;103593.84;4964186;28;20033;-60
2022/01/23 08:45:51;;;;;;;47.88;27.48;;;;;;;4.76;97.21;103589.25;4965491;28;20030;-59
2022/01/23 08:48:17;;;;;;;44.47;25.67;;;;;;;4.78;97.49;103598.19;4983889;28;20505;-59
2022/01/23 08:50:42;;;;;;;52.53;28.60;;;;;;;4.79;97.18;103595.34;4987218;28;20113;-60
2022/01/23 08:53:07;;;;;;;50.40;28.13;;;;;;;4.83;97.25;103604.13;4987850;28;20057;-60
2022/01/23 08:55:33;;;;;;;53.58;29.90;;;;;;;4.87;97.44;103613.78;4982150;28;20385;-59
2022/01/23 08:57:58;;;;;;;48.95;29.85;;;;;;;4.88;97.02;103610.06;4973470;28;20472;-60
2022/01/23 09:00:24;;;;;;;52.65;31.00;;;;;;;4.89;96.95;103615.38;4978469;28;20039;-59
2022/01/23 09:02:49;;;;;;;47.15;29.33;;;;;;;4.92;96.42;103611.56;4968125;28;20037;-60
2022/01/23 09:05:14;;;;;;;51.30;30.08;;;;;;;4.96;96.45;103613.00;4967939;28;20509;-60
2022/01/23 09:07:40;;;;;;;55.33;31.25;;;;;;;5.01;96.56;103624.38;4964698;28;20069;-60
2022/01/23 09:10:05;;;;;;;51.00;30.80;;;;;;;5.05;96.24;103614.97;4966839;28;20039;-60
2022/01/23 09:12:57;;;;;;;52.63;32.47;;;;;;;5.08;95.99;103612.00;4975791;28;20037;-60
2022/01/23 09:15:23;;;;;;;52.80;30.45;;;;;;;5.11;95.98;103608.16;4966571;28;20564;-60
2022/01/23 09:17:48;;;;;;;54.55;32.95;;;;;;;5.12;95.51;103609.88;4967069;28;20188;-60
2022/01/23 09:20:15;;;;;;;53.38;31.00;;;;;;;5.17;95.20;103607.63;4981091;28;20022;-60
2022/01/23 09:22:40;;;;;;;54.78;31.80;;;;;;;5.19;95.39;103598.38;4966195;28;20117;-60
2022/01/23 09:25:05;;;;;;;58.53;33.20;;;;;;;5.24;95.66;103608.88;4966213;28;20458;-60
2022/01/23 09:27:31;;;;;;;55.50;30.25;;;;;;;5.27;95.51;103597.75;4981617;28;20121;-60
2022/01/23 09:30:05;;;;;;;57.75;31.35;;;;;;;5.30;95.19;103607.50;4979698;28;20504;-60
2022/01/23 09:32:30;;;;;;;50.92;29.73;;;;;;;5.32;94.89;103610.94;4964731;28;20082;-61
2022/01/23 09:34:57;;;;;;;53.53;31.88;;;;;;;5.34;94.68;103608.97;4964713;28;20023;-61
2022/01/23 09:37:22;;;;;;;51.05;28.42;;;;;;;5.35;94.46;103605.25;4965643;28;20102;-61
2022/01/23 09:39:52;;;;;;;53.65;31.20;;;;;;;5.37;94.24;103611.44;4966228;28;20521;-61
2022/01/23 09:42:23;;;;;;;53.15;30.25;;;;;;;5.39;94.08;103617.63;4965155;28;20557;-67
2022/01/23 09:44:57;;;;;;;54.65;30.83;;;;;;;5.40;93.68;103617.50;4965538;28;20027;-62
2022/01/23 09:47:22;;;;;;;58.13;31.77;;;;;;;5.45;94.02;103617.13;4958336;28;20035;-63
2022/01/23 09:49:50;;;;;;;54.80;32.08;;;;;;;5.47;93.91;103612.38;4963208;28;20582;-62
2022/01/23 09:52:17;;;;;;;56.63;32.15;;;;;;;5.53;93.44;103622.78;4966833;28;20394;-63
2022/01/23 09:54:45;;;;;;;56.35;31.73;;;;;;;5.54;93.66;103623.66;4967220;28;20279;-63
2022/01/23 09:57:12;;;;;;;56.72;32.05;;;;;;;5.59;93.44;103615.97;4966691;28;20097;-63
2022/01/23 09:59:39;;;;;;;57.42;33.45;;;;;;;5.59;93.26;103630.44;4966021;28;20122;-62
2022/01/23 10:02:05;;;;;;;60.50;33.75;;;;;;;5.61;92.93;103630.31;4965425;28;20772;-62
2022/01/23 10:04:30;;;;;;;55.80;33.15;;;;;;;5.63;92.90;103626.47;4967269;28;20114;-62
2022/01/23 10:06:56;;;;;;;59.30;34.35;;;;;;;5.66;93.85;103626.19;4966242;28;20074;-63
2022/01/23 10:09:24;;;;;;;55.97;32.42;;;;;;;5.71;93.07;103626.66;4966522;28;20571;-62
2022/01/23 10:11:50;;;;;;;61.97;33.83;;;;;;;5.76;92.64;103633.59;4964542;28;20114;-62
2022/01/23 10:14:18;;;;;;;58.38;33.92;;;;;;;5.79;92.63;103628.75;4963810;28;20113;-63
2022/01/23 10:16:44;;;;;;;57.30;33.28;;;;;;;5.84;92.61;103628.38;4966919;28;20019;-63
2022/01/23 10:19:10;;;;;;;52.90;32.95;;;;;;;5.85;91.97;103632.81;4966191;28;20117;-62
2022/01/23 10:21:38;;;;;;;55.70;33.75;;;;;;;5.90;92.26;103623.25;4965053;28;20034;-62
2022/01/23 10:24:05;;;;;;;62.10;37.60;;;;;;;5.96;92.44;103619.16;4965745;28;20165;-62
2022/01/23 10:26:52;;;;;;;58.80;34.07;;;;;;;6.04;92.40;103626.69;4966928;28;20089;-62
2022/01/23 10:29:26;;;;;;;57.55;34.20;;;;;;;6.06;91.88;103628.28;4965292;28;20421;-69
2022/01/23 10:32:22;;;;;;;61.88;35.45;;;;;;;6.16;91.74;103621.00;4964385;28;20379;-61
2022/01/23 10:34:54;;;;;;;55.67;33.40;;;;;;;6.17;90.95;103619.16;4964494;28;20038;-62
2022/01/23 10:37:37;;;;;;;60.00;34.00;;;;;;;6.17;91.47;103611.81;4964554;28;20708;-62
2022/01/23 10:40:24;;;;;;;57.53;34.33;;;;;;;6.17;91.00;103621.88;4964778;28;20485;-62
2022/01/23 10:46:35;;;;;;;56.38;33.50;;;;;;;6.14;90.00;103623.03;4960851;28;20041;-62
2022/01/23 10:48:39;;;;;;;57.72;33.17;;;;;;;6.22;90.30;103609.56;4964861;28;20066;-62
2022/01/23 10:51:16;;;;;;;57.60;32.88;;;;;;;6.30;90.59;103613.50;4964140;28;20027;-62
2022/01/23 10:54:02;;;;;;;58.83;33.75;;;;;;;6.35;90.73;103608.50;4965120;28;20038;-62
2022/01/23 10:56:29;;;;;;;55.63;32.28;;;;;;;6.36;89.88;103610.22;4951271;28;20105;-62
2022/01/23 10:59:01;;;;;;;57.53;32.83;;;;;;;6.39;89.98;103612.69;4965273;28;20117;-62
2022/01/23 11:01:30;;;;;;;57.45;32.78;;;;;;;6.44;89.68;103610.44;4964701;28;20482;-62
2022/01/23 11:04:12;;;;;;;53.83;31.10;;;;;;;6.54;89.35;103614.06;4963534;28;20058;-62
2022/01/23 11:07:01;;;;;;;51.67;28.90;;;;;;;6.57;89.36;103608.31;4964410;28;20038;-62
2022/01/23 11:09:36;;;;;;;51.03;29.88;;;;;;;6.54;89.16;103608.59;4966214;28;20389;-62
2022/01/23 11:12:13;;;;;;;54.20;30.23;;;;;;;6.59;89.31;103610.91;4964223;28;20027;-62
2022/01/23 11:17:23;;;;;;;51.78;28.52;;;;;;;6.61;89.08;103601.59;4975106;28;20049;-62
2022/01/23 11:19:51;;;;;;;60.53;32.83;;;;;;;6.62;88.96;103600.56;4983746;28;20027;-62
2022/01/23 11:22:19;;;;;;;52.83;32.22;;;;;;;6.70;89.30;103597.19;4981377;28;20077;-62
2022/01/23 11:24:47;;;;;;;51.70;30.58;;;;;;;6.74;89.17;103599.50;4979271;28;20109;-62
2022/01/23 11:27:13;;;;;;;;;;;;;;;6.88;90.16;103597.38;4965938;28;20031;-62
2022/01/23 11:29:57;;;;;;;56.67;29.13;;;;;;;6.78;88.69;103596.47;4961247;28;19926;-62
2022/01/23 11:32:25;;;;;;;51.17;29.73;;;;;;;6.67;88.78;103598.28;4960038;28;20042;-62
2022/01/23 11:35:00;;;;;;;53.05;30.73;;;;;;;6.70;89.21;103584.38;4964019;28;20470;-62
2022/01/23 11:37:26;;;;;;;54.13;30.98;;;;;;;6.73;89.11;103585.94;4965955;28;20050;-62
2022/01/23 11:39:56;;;;;;;59.28;34.08;;;;;;;6.74;88.83;103583.09;4966072;28;20289;-62
2022/01/23 11:50:51;;;;;;;52.47;30.55;;;;;;;6.85;89.07;103586.72;4980568;28;20065;-62
2022/01/23 11:56:24;;;;;;;54.08;31.80;;;;;;;6.87;88.75;103577.38;4966391;28;20521;-61
2022/01/23 11:58:52;;;;;;;57.05;30.83;;;;;;;6.86;88.69;103578.38;4965334;28;20038;-62
2022/01/23 12:01:20;;;;;;;54.90;31.58;;;;;;;6.86;88.43;103577.53;4982791;28;20547;-61
2022/01/23 12:04:07;;;;;;;54.33;32.22;;;;;;;6.93;88.37;103575.94;4967701;28;20050;-61
2022/01/23 12:06:35;;;;;;;50.22;29.92;;;;;;;6.88;88.83;103578.25;4965239;28;20087;-61
2022/01/23 12:09:09;;;;;;;55.25;31.60;;;;;;;6.86;87.84;103566.59;4965695;28;20035;-61
2022/01/23 12:11:41;;;;;;;51.60;29.42;;;;;;;6.80;88.13;103564.44;4965105;28;20457;-61
2022/01/23 12:16:59;;;;;;;49.63;30.02;;;;;;;6.84;87.80;103565.84;4973559;28;20039;-61
2022/01/23 12:19:33;;;;;;;51.10;29.88;;;;;;;6.75;88.21;103562.13;4965381;28;20014;-61
2022/01/23 12:22:23;;;;;;;48.17;28.75;;;;;;;6.83;88.62;103564.13;4964929;28;20019;-61
2022/01/23 12:24:50;;;;;;;51.40;28.75;;;;;;;6.73;88.21;103554.03;4966192;28;20035;-61
2022/01/23 12:27:23;;;;;;;53.65;29.30;;;;;;;6.74;88.53;103552.16;4966832;28;20015;-61
2022/01/23 12:29:49;;;;;;;52.40;29.90;;;;;;;6.72;88.87;103552.31;4976510;28;20038;-61
2022/01/23 12:32:18;;;;;;;50.90;28.38;;;;;;;6.72;88.52;103552.31;4988173;28;20037;-61
2022/01/23 12:34:53;;;;;;;52.55;28.90;;;;;;;6.73;88.78;103547.72;4988233;28;20031;-61
2022/01/23 12:37:18;;;;;;;53.67;29.52;;;;;;;6.73;89.21;103543.13;4988110;28;20026;-61
2022/01/23 12:39:45;;;;;;;50.38;27.38;;;;;;;6.73;88.62;103548.56;4988842;28;20373;-61
2022/01/23 12:42:10;;;;;;;51.63;29.10;;;;;;;6.68;89.24;103545.41;4987878;28;20035;-61
2022/01/23 12:44:38;;;;;;;54.05;30.13;;;;;;;6.67;89.88;103546.41;4981647;28;20033;-61
2022/01/23 12:47:06;;;;;;;51.55;28.13;;;;;;;6.69;89.92;103544.41;4968491;28;20173;-61
2022/01/23 12:49:38;;;;;;;46.10;24.95;;;;;;;6.69;90.11;103538.97;4969383;28;20789;-61
2022/01/23 12:52:06;;;;;;;48.67;27.15;;;;;;;6.68;89.24;103541.81;4967921;28;20038;-61
2022/01/23 12:54:33;;;;;;;42.75;24.13;;;;;;;6.65;89.50;103534.78;4968742;28;20050;-61
2022/01/23 12:57:08;;;;;;;43.72;24.95;;;;;;;6.65;89.33;103539.38;4967808;28;20030;-61
2022/01/23 12:59:35;;;;;;;44.75;25.50;;;;;;;6.63;89.47;103531.28;4977863;28;20041;-61
2022/01/23 13:02:06;;;;;;;47.90;28.85;;;;;;;6.62;89.59;103529.56;4984010;28;20026;-61
2022/01/23 13:04:45;;;;;;;45.40;27.27;;;;;;;6.64;90.02;103522.13;4977055;28;20050;-61
2022/01/23 13:07:23;;;;;;;46.42;27.10;;;;;;;6.67;90.02;103516.38;4967027;28;20164;-61
2022/01/23 13:09:53;;;;;;;49.78;29.02;;;;;;;6.70;89.83;103529.75;4967592;28;20450;-61
2022/01/23 13:31:56;;;;;;;54.28;31.50;;;;;;;6.55;89.27;103516.63;4986698;28;20037;-62
2022/01/23 13:34:29;;;;;;;55.17;31.63;;;;;;;6.54;90.00;103520.34;4980812;28;20102;-62
2022/01/23 13:37:13;;;;;;;55.35;32.28;;;;;;;6.56;90.33;103530.13;4944997;28;20034;-62
2022/01/23 13:39:50;;;;;;;55.13;32.58;;;;;;;6.54;89.88;103517.59;4947688;28;20024;-62
2022/01/23 13:48:15;;;;;;;58.80;32.55;;;;;;;6.49;90.13;103515.31;4986227;28;20144;-62
2022/01/23 14:02:13;;;;;;;54.53;33.75;;;;;;;6.49;90.11;103508.00;4984779;28;20078;-62
2022/01/23 14:04:41;;;;;;;58.35;32.63;;;;;;;6.52;90.07;103503.25;4986538;28;20034;-62
2022/01/23 14:07:07;;;;;;;;;;;;;;;6.62;90.53;103506.88;4986771;28;20157;-62
2022/01/23 14:09:43;;;;;;;61.72;34.53;;;;;;;6.59;90.36;103497.09;4975544;28;19922;-62
2022/01/23 14:12:11;;;;;;;57.00;33.03;;;;;;;6.58;89.55;103500.81;4965728;28;20118;-62
2022/01/23 14:14:49;;;;;;;60.08;33.67;;;;;;;6.61;89.69;103492.34;4979201;28;20433;-62
2022/01/23 14:17:15;;;;;;;57.72;33.47;;;;;;;6.61;89.66;103497.81;4966500;28;20033;-62
2022/01/23 14:19:40;;;;;;;56.60;33.55;;;;;;;6.61;89.18;103489.63;4966426;28;20401;-62
2022/01/23 14:22:05;;;;;;;58.42;31.95;;;;;;;6.60;89.53;103497.97;4966403;28;20086;-62
2022/01/23 14:24:36;;;;;;;56.20;32.28;;;;;;;6.58;89.03;103500.81;4967826;28;20034;-62
2022/01/23 14:27:13;;;;;;;61.58;33.90;;;;;;;6.61;89.99;103507.88;4965867;28;20521;-62
2022/01/23 14:29:53;;;;;;;52.53;32.17;;;;;;;6.61;89.26;103508.75;4980921;28;20050;-62
2022/01/23 14:32:34;;;;;;;55.80;32.75;;;;;;;6.56;89.05;103502.84;4986174;28;20030;-62
2022/01/23 14:35:12;;;;;;;58.63;34.42;;;;;;;6.54;89.31;103507.59;4986902;28;20038;-62